createdAt,value
2018-12-16T00:00:57.264Z,88.50
2018-12-16T00:03:26.328Z,88.02
2018-12-16T00:05:55.189Z,88.42
2018-12-16T00:08:24.157Z,88.72
2018-12-16T00:10:53.078Z,88.40
2018-12-16T00:13:21.939Z,89.62
2018-12-16T00:15:50.922Z,88.69
2018-12-16T00:18:19.821Z,89.24
2018-12-16T00:20:48.703Z,88.78
2018-12-16T00:23:17.627Z,90.11
2018-12-16T00:25:46.686Z,89.43
2018-12-16T00:28:15.553Z,89.61
2018-12-16T00:30:44.452Z,88.64
2018-12-16T00:33:13.342Z,88.64
2018-12-16T00:35:42.213Z,88.64
2018-12-16T00:38:11.115Z,88.88
2018-12-16T00:40:40.015Z,88.60
2018-12-16T00:43:08.924Z,88.77
2018-12-16T00:45:37.823Z,88.82
2018-12-16T00:48:06.785Z,88.72
2018-12-16T00:50:35.699Z,89.14
2018-12-16T00:53:04.634Z,88.91
2018-12-16T00:55:33.958Z,89.27
2018-12-16T00:58:02.924Z,88.86
2018-12-16T01:00:31.797Z,88.44
2018-12-16T01:03:00.677Z,88.82
2018-12-16T01:05:29.729Z,89.07
2018-12-16T01:07:58.593Z,89.42
2018-12-16T01:10:27.473Z,90.14
2018-12-16T01:12:56.420Z,89.94
2018-12-16T01:15:25.541Z,89.83
2018-12-16T01:17:54.393Z,90.33
2018-12-16T01:20:23.366Z,89.89
2018-12-16T01:22:52.255Z,90.15
2018-12-16T01:25:21.117Z,90.20
2018-12-16T01:27:50.064Z,90.25
2018-12-16T01:30:19.029Z,90.68
2018-12-16T01:32:48.222Z,90.88
2018-12-16T01:35:17.146Z,90.63
2018-12-16T01:37:46.923Z,91.16
2018-12-16T01:40:15.906Z,90.66
2018-12-16T01:42:44.809Z,90.92
2018-12-16T01:45:13.685Z,90.54
2018-12-16T01:47:42.575Z,90.10
2018-12-16T01:50:11.485Z,90.64
2018-12-16T01:52:40.394Z,90.20
2018-12-16T01:55:09.388Z,90.24
2018-12-16T01:57:38.362Z,89.63
2018-12-16T02:03:05.245Z,89.63
2018-12-16T02:05:34.251Z,90.26
2018-12-16T02:08:03.304Z,90.32
2018-12-16T02:10:32.506Z,90.50
2018-12-16T02:13:01.593Z,89.74
2018-12-16T02:15:30.525Z,90.00
2018-12-16T02:17:59.520Z,89.47
2018-12-16T02:20:28.435Z,89.75
2018-12-16T02:22:57.568Z,90.42
2018-12-16T02:25:26.469Z,88.81
2018-12-16T02:27:55.393Z,89.32
2018-12-16T02:30:28.809Z,89.38
2018-12-16T02:32:57.787Z,90.22
2018-12-16T02:35:26.965Z,89.41
2018-12-16T02:37:55.907Z,89.16
2018-12-16T02:40:24.809Z,89.17
2018-12-16T02:42:53.749Z,88.58
2018-12-16T02:45:22.698Z,89.55
2018-12-16T02:47:51.666Z,89.54
2018-12-16T02:50:20.545Z,89.29
2018-12-16T02:52:49.503Z,88.41
2018-12-16T02:55:18.544Z,89.00
2018-12-16T02:57:47.536Z,89.37
2018-12-16T03:00:16.455Z,89.22
2018-12-16T03:02:45.441Z,89.48
2018-12-16T03:05:14.358Z,89.93
2018-12-16T03:07:43.407Z,89.24
2018-12-16T03:10:12.305Z,88.78
2018-12-16T03:12:41.228Z,89.44
2018-12-16T03:15:10.258Z,89.00
2018-12-16T03:17:39.180Z,89.25
2018-12-16T03:20:08.223Z,89.23
2018-12-16T03:22:37.136Z,89.13
2018-12-16T03:25:06.662Z,88.70
2018-12-16T03:27:35.557Z,88.73
2018-12-16T03:30:06.460Z,88.33
2018-12-16T03:32:35.732Z,88.61
2018-12-16T03:35:04.792Z,88.32
2018-12-16T03:37:33.836Z,88.45
2018-12-16T03:40:02.937Z,88.97
2018-12-16T03:42:31.855Z,88.60
2018-12-16T03:45:00.739Z,87.98
2018-12-16T03:47:29.665Z,87.92
2018-12-16T03:49:58.634Z,88.78
2018-12-16T03:52:27.534Z,88.00
2018-12-16T03:54:56.600Z,88.38
2018-12-16T03:57:25.528Z,88.44
2018-12-16T03:59:54.440Z,88.34
2018-12-16T04:02:23.355Z,88.08
2018-12-16T04:04:52.309Z,88.09
2018-12-16T04:07:21.225Z,88.25
2018-12-16T04:09:50.211Z,88.21
2018-12-16T04:12:19.164Z,88.46
2018-12-16T04:14:48.056Z,88.41
2018-12-16T04:17:17.037Z,88.03
2018-12-16T04:19:45.935Z,87.57
2018-12-16T04:22:14.895Z,87.83
2018-12-16T04:24:43.878Z,87.65
2018-12-16T04:27:12.837Z,87.54
2018-12-16T04:29:41.747Z,87.91
2018-12-16T04:32:10.753Z,87.49
2018-12-16T04:34:40.077Z,87.36
2018-12-16T04:37:09.190Z,87.27
2018-12-16T04:39:38.096Z,87.83
2018-12-16T04:42:07.148Z,87.97
2018-12-16T04:44:36.105Z,87.03
2018-12-16T04:47:05.039Z,86.97
2018-12-16T04:49:33.964Z,87.55
2018-12-16T04:52:02.902Z,87.05
2018-12-16T04:54:31.847Z,87.71
2018-12-16T04:57:00.748Z,87.77
2018-12-16T04:59:29.908Z,87.15
2018-12-16T05:01:58.880Z,87.23
2018-12-16T05:04:27.832Z,88.01
2018-12-16T05:06:56.766Z,87.75
2018-12-16T05:09:25.669Z,87.18
2018-12-16T05:11:54.600Z,87.86
2018-12-16T05:14:23.565Z,87.69
2018-12-16T05:16:52.479Z,87.98
2018-12-16T05:19:21.458Z,88.33
2018-12-16T05:21:50.374Z,87.49
2018-12-16T05:24:19.354Z,87.89
2018-12-16T05:26:48.279Z,88.95
2018-12-16T05:29:17.203Z,88.10
2018-12-16T05:31:46.173Z,87.89
2018-12-16T05:34:15.109Z,87.77
2018-12-16T05:36:44.091Z,87.68
2018-12-16T05:39:13.032Z,87.92
2018-12-16T05:41:41.946Z,88.44
2018-12-16T05:44:10.973Z,88.24
2018-12-16T05:46:39.952Z,88.24
2018-12-16T05:49:08.840Z,88.14
2018-12-16T05:51:37.797Z,87.81
2018-12-16T05:54:06.694Z,87.55
2018-12-16T05:56:35.664Z,87.95
2018-12-16T05:59:04.631Z,88.07
2018-12-16T06:01:33.648Z,88.05
2018-12-16T06:04:02.564Z,88.01
2018-12-16T06:06:31.539Z,87.90
2018-12-16T06:09:00.475Z,87.99
2018-12-16T06:11:29.395Z,88.03
2018-12-16T06:13:58.334Z,87.93
2018-12-16T06:16:27.331Z,88.29
2018-12-16T06:18:56.312Z,87.77
2018-12-16T06:21:25.558Z,87.15
2018-12-16T06:23:55.769Z,87.95
2018-12-16T06:26:25.020Z,88.28
2018-12-16T06:28:53.962Z,88.66
2018-12-16T06:31:22.926Z,88.69
2018-12-16T06:33:51.851Z,88.16
2018-12-16T06:36:20.780Z,88.66
2018-12-16T06:38:49.731Z,88.69
2018-12-16T06:41:18.688Z,88.76
2018-12-16T06:43:47.617Z,88.61
2018-12-16T06:46:16.558Z,88.52
2018-12-16T06:48:45.489Z,87.87
2018-12-16T06:51:14.419Z,88.95
2018-12-16T06:53:43.380Z,89.06
2018-12-16T06:56:12.328Z,89.05
2018-12-16T06:58:41.309Z,89.25
2018-12-16T07:01:10.255Z,89.18
2018-12-16T07:03:39.157Z,88.70
2018-12-16T07:06:08.133Z,88.86
2018-12-16T07:08:37.041Z,88.93
2018-12-16T07:11:05.957Z,88.54
2018-12-16T07:13:34.881Z,88.69
2018-12-16T07:16:03.804Z,88.86
2018-12-16T07:18:32.753Z,88.31
2018-12-16T07:21:01.682Z,88.09
2018-12-16T07:23:30.604Z,88.05
2018-12-16T07:25:59.673Z,87.97
2018-12-16T07:28:28.588Z,88.73
2018-12-16T07:30:57.539Z,87.97
2018-12-16T07:33:26.470Z,88.11
2018-12-16T07:35:55.449Z,88.51
2018-12-16T07:38:24.512Z,87.71
2018-12-16T07:40:53.430Z,87.52
2018-12-16T07:43:22.536Z,87.88
2018-12-16T07:45:51.598Z,87.08
2018-12-16T07:48:20.803Z,87.80
2018-12-16T07:50:49.887Z,87.29
2018-12-16T07:53:18.805Z,87.26
2018-12-16T07:55:47.859Z,86.95
2018-12-16T07:58:16.785Z,86.94
2018-12-16T08:00:45.752Z,85.81
2018-12-16T08:03:14.691Z,86.62
2018-12-16T08:05:44.230Z,86.27
2018-12-16T08:08:13.686Z,85.70
2018-12-16T08:10:42.608Z,86.32
2018-12-16T08:13:11.572Z,85.14
2018-12-16T08:15:40.507Z,85.38
2018-12-16T08:18:09.480Z,85.06
2018-12-16T08:20:38.371Z,85.12
2018-12-16T08:23:07.416Z,84.88
2018-12-16T08:25:36.360Z,84.49
2018-12-16T08:28:05.294Z,84.34
2018-12-16T08:30:34.243Z,83.51
2018-12-16T08:33:03.152Z,83.65
2018-12-16T08:35:32.067Z,83.31
2018-12-16T08:38:01.110Z,83.98
2018-12-16T08:40:30.115Z,83.18
2018-12-16T08:42:59.070Z,83.05
2018-12-16T08:45:28.037Z,83.09
2018-12-16T08:47:56.941Z,82.86
2018-12-16T08:50:25.949Z,82.58
2018-12-16T08:52:54.925Z,82.92
2018-12-16T08:55:23.886Z,83.24
2018-12-16T08:57:52.824Z,82.40
2018-12-16T09:00:21.824Z,81.59
2018-12-16T09:02:50.915Z,81.79
2018-12-16T09:05:19.930Z,81.64
2018-12-16T09:07:48.871Z,81.44
2018-12-16T09:10:17.841Z,81.89
2018-12-16T09:12:46.772Z,81.93
2018-12-16T09:15:15.678Z,82.21
2018-12-16T09:17:44.693Z,81.93
2018-12-16T09:20:13.788Z,80.89
2018-12-16T09:22:42.710Z,81.35
2018-12-16T09:25:11.600Z,81.57
2018-12-16T09:27:40.605Z,81.81
2018-12-16T09:30:11.487Z,81.04
2018-12-16T09:32:40.440Z,81.33
2018-12-16T09:35:09.418Z,81.23
2018-12-16T09:37:38.841Z,80.54
2018-12-16T09:40:08.292Z,81.29
2018-12-16T09:42:37.267Z,80.63
2018-12-16T09:45:09.239Z,80.34
2018-12-16T09:47:38.355Z,80.59
2018-12-16T09:50:07.536Z,81.07
2018-12-16T09:52:36.529Z,80.54
2018-12-16T09:55:06.578Z,80.59
2018-12-16T09:57:35.487Z,80.23
2018-12-16T10:00:05.038Z,80.32
2018-12-16T10:02:33.942Z,79.99
2018-12-16T10:05:02.823Z,80.28
2018-12-16T10:07:31.799Z,79.46
2018-12-16T10:10:00.856Z,79.79
2018-12-16T10:12:29.765Z,80.54
2018-12-16T10:14:58.742Z,80.58
2018-12-16T10:17:27.699Z,79.81
2018-12-16T10:19:56.738Z,78.73
2018-12-16T10:22:25.661Z,79.17
2018-12-16T10:24:54.707Z,79.35
2018-12-16T10:27:23.725Z,78.89
2018-12-16T10:29:53.925Z,79.18
2018-12-16T10:32:22.981Z,79.87
2018-12-16T10:34:51.913Z,79.11
2018-12-16T10:37:20.845Z,79.97
2018-12-16T10:39:49.790Z,79.58
2018-12-16T10:42:18.739Z,79.09
2018-12-16T10:44:47.749Z,79.29
2018-12-16T10:47:16.755Z,79.39
2018-12-16T10:49:45.693Z,78.15
2018-12-16T10:52:14.680Z,78.00
2018-12-16T10:54:43.616Z,78.31
2018-12-16T10:57:12.556Z,78.62
2018-12-16T10:59:41.474Z,78.68
2018-12-16T11:02:10.552Z,77.82
2018-12-16T11:04:39.499Z,77.85
2018-12-16T11:07:08.485Z,78.96
2018-12-16T11:09:37.481Z,79.58
2018-12-16T11:12:06.434Z,79.48
2018-12-16T11:14:35.360Z,78.32
2018-12-16T11:17:04.347Z,79.33
2018-12-16T11:19:33.413Z,80.17
2018-12-16T11:22:02.360Z,79.04
2018-12-16T11:24:31.323Z,78.53
2018-12-16T11:27:00.312Z,78.65
2018-12-16T11:29:29.288Z,78.41
2018-12-16T11:31:58.233Z,78.68
2018-12-16T11:34:27.177Z,77.89
2018-12-16T11:36:56.125Z,79.52
2018-12-16T11:39:25.055Z,78.41
2018-12-16T11:41:54.015Z,79.38
2018-12-16T11:44:25.202Z,79.76
2018-12-16T11:46:54.154Z,79.34
2018-12-16T11:49:23.089Z,78.99
2018-12-16T11:51:52.184Z,79.39
2018-12-16T11:54:21.189Z,79.47
2018-12-16T11:56:50.137Z,79.39
2018-12-16T11:59:19.135Z,77.99
2018-12-16T12:01:48.040Z,79.08
2018-12-16T12:04:17.088Z,79.05
2018-12-16T12:06:46.098Z,79.20
2018-12-16T12:09:15.252Z,78.31
2018-12-16T12:11:47.307Z,78.10
2018-12-16T12:14:16.302Z,76.94
2018-12-16T12:16:45.295Z,78.49
2018-12-16T12:19:14.323Z,78.87
2018-12-16T12:21:52.882Z,78.19
2018-12-16T12:24:21.980Z,78.05
2018-12-16T12:26:50.955Z,78.87
2018-12-16T12:29:19.925Z,78.15
2018-12-16T12:31:48.910Z,78.59
2018-12-16T12:34:17.876Z,78.29
2018-12-16T12:36:46.762Z,78.41
2018-12-16T12:39:15.803Z,78.53
2018-12-16T12:41:44.789Z,77.76
2018-12-16T12:44:13.836Z,78.19
2018-12-16T12:46:42.848Z,78.41
2018-12-16T12:49:11.822Z,77.80
2018-12-16T12:51:41.108Z,78.72
2018-12-16T12:54:10.064Z,78.52
2018-12-16T12:56:39.052Z,77.67
2018-12-16T12:59:08.099Z,77.74
2018-12-16T13:01:37.052Z,78.47
2018-12-16T13:04:06.023Z,78.09
2018-12-16T13:06:35.026Z,78.81
2018-12-16T13:09:05.830Z,78.85
2018-12-16T13:11:34.798Z,78.66
2018-12-16T13:14:03.808Z,77.83
2018-12-16T13:16:32.845Z,78.18
2018-12-16T13:19:01.929Z,78.11
2018-12-16T13:21:30.874Z,78.68
2018-12-16T13:23:59.784Z,78.20
2018-12-16T13:26:29.000Z,78.04
2018-12-16T13:28:58.042Z,78.84
2018-12-16T13:31:26.998Z,78.05
2018-12-16T13:33:55.990Z,78.56
2018-12-16T13:36:25.068Z,78.52
2018-12-16T13:38:54.085Z,79.55
2018-12-16T13:41:23.078Z,78.52
2018-12-16T13:43:52.788Z,78.66
2018-12-16T13:46:21.883Z,78.55
2018-12-16T13:48:50.865Z,78.80
2018-12-16T13:51:19.792Z,78.93
2018-12-16T13:53:48.847Z,78.11
2018-12-16T13:56:17.771Z,78.42
2018-12-16T13:58:46.767Z,78.42
2018-12-16T14:01:15.782Z,78.59
2018-12-16T14:03:44.726Z,78.52
2018-12-16T14:06:13.709Z,78.65
2018-12-16T14:08:42.653Z,78.19
2018-12-16T14:11:11.608Z,79.14
2018-12-16T14:13:40.604Z,78.50
2018-12-16T14:16:09.553Z,78.35
2018-12-16T14:18:38.515Z,78.37
2018-12-16T14:21:07.715Z,79.37
2018-12-16T14:23:36.770Z,78.71
2018-12-16T14:26:05.721Z,79.16
2018-12-16T14:28:34.760Z,78.62
2018-12-16T14:31:03.744Z,78.66
2018-12-16T14:33:32.691Z,78.46
2018-12-16T14:36:01.687Z,79.02
2018-12-16T14:38:30.873Z,78.85
2018-12-16T14:40:59.836Z,78.80
2018-12-16T14:43:30.761Z,78.82
2018-12-16T14:45:59.656Z,78.75
2018-12-16T14:48:28.675Z,79.29
2018-12-16T14:50:57.704Z,78.96
2018-12-16T14:53:31.618Z,78.69
2018-12-16T14:56:00.620Z,78.91
2018-12-16T14:58:29.602Z,78.11
2018-12-16T15:00:58.636Z,78.58
2018-12-16T15:03:27.628Z,78.72
2018-12-16T15:05:56.604Z,78.97
2018-12-16T15:08:25.918Z,78.57
2018-12-16T15:11:00.163Z,79.26
2018-12-16T15:13:29.189Z,79.37
2018-12-16T15:15:58.185Z,79.48
2018-12-16T15:18:27.209Z,78.81
2018-12-16T15:20:56.233Z,79.57
2018-12-16T15:23:25.292Z,79.67
2018-12-16T15:25:54.314Z,79.53
2018-12-16T15:28:23.255Z,78.92
2018-12-16T15:30:52.345Z,79.11
2018-12-16T15:33:21.628Z,79.38
2018-12-16T15:35:50.633Z,78.94
2018-12-16T15:38:19.614Z,78.42
2018-12-16T15:40:48.612Z,79.33
2018-12-16T15:43:17.721Z,79.32
2018-12-16T15:45:46.741Z,79.57
2018-12-16T15:48:15.763Z,79.49
2018-12-16T15:50:44.737Z,79.26
2018-12-16T15:53:13.719Z,79.55
2018-12-16T15:55:42.750Z,79.18
2018-12-16T15:58:11.711Z,79.35
2018-12-16T16:00:40.710Z,79.45
2018-12-16T16:03:09.736Z,79.48
2018-12-16T16:05:38.809Z,79.06
2018-12-16T16:08:07.805Z,79.63
2018-12-16T16:10:36.781Z,79.60
2018-12-16T16:13:05.888Z,79.56
2018-12-16T16:15:34.873Z,79.16
2018-12-16T16:18:04.110Z,79.40
2018-12-16T16:20:33.131Z,79.22
2018-12-16T16:23:02.134Z,78.87
2018-12-16T16:25:31.204Z,79.96
2018-12-16T16:28:00.249Z,79.51
2018-12-16T16:30:29.248Z,79.48
2018-12-16T16:32:58.216Z,79.00
2018-12-16T16:35:27.239Z,78.97
2018-12-16T16:38:00.691Z,78.41
2018-12-16T16:40:27.497Z,78.75
2018-12-16T16:42:56.548Z,80.05
2018-12-16T16:45:25.513Z,80.81
2018-12-16T16:47:54.517Z,80.72
2018-12-16T16:50:23.538Z,80.52
2018-12-16T16:52:52.563Z,79.60
2018-12-16T16:55:21.551Z,79.49
2018-12-16T16:57:50.547Z,79.34
2018-12-16T17:00:19.580Z,78.51
2018-12-16T17:02:48.610Z,79.19
2018-12-16T17:05:17.645Z,79.25
2018-12-16T17:07:46.601Z,78.87
2018-12-16T17:10:15.568Z,78.56
2018-12-16T17:12:44.590Z,79.45
2018-12-16T17:15:13.577Z,78.70
2018-12-16T17:17:42.543Z,78.82
2018-12-16T17:20:11.568Z,78.70
2018-12-16T17:22:40.574Z,78.93
2018-12-16T17:25:09.667Z,79.73
2018-12-16T17:27:38.676Z,79.74
2018-12-16T17:30:09.853Z,81.07
2018-12-16T17:32:38.898Z,80.14
2018-12-16T17:35:08.014Z,80.51
2018-12-16T17:37:37.095Z,80.83
2018-12-16T17:40:06.226Z,80.59
2018-12-16T17:42:35.285Z,80.60
2018-12-16T17:45:04.855Z,80.63
2018-12-16T17:47:34.119Z,81.83
2018-12-16T17:50:03.296Z,81.98
2018-12-16T17:52:32.257Z,83.58
2018-12-16T17:55:01.233Z,84.41
2018-12-16T17:57:30.605Z,83.82
2018-12-16T18:00:00.522Z,84.64
2018-12-16T18:02:29.669Z,84.34
2018-12-16T18:04:58.738Z,85.25
2018-12-16T18:07:27.735Z,85.25
2018-12-16T18:09:56.696Z,84.96
2018-12-16T18:12:25.686Z,84.61
2018-12-16T18:14:54.666Z,84.56
2018-12-16T18:17:23.672Z,84.67
2018-12-16T18:19:52.679Z,85.22
2018-12-16T18:22:21.680Z,84.54
2018-12-16T18:24:50.784Z,84.15
2018-12-16T18:27:19.811Z,85.10
2018-12-16T18:29:48.815Z,84.69
2018-12-16T18:32:17.803Z,84.54
2018-12-16T18:34:46.798Z,84.58
2018-12-16T18:37:16.058Z,83.75
2018-12-16T18:39:45.106Z,85.11
2018-12-16T18:42:14.207Z,84.98
2018-12-16T18:44:43.268Z,84.47
2018-12-16T18:47:12.260Z,85.32
2018-12-16T18:49:41.247Z,85.69
2018-12-16T18:52:10.428Z,85.51
2018-12-16T18:54:39.430Z,86.24
2018-12-16T18:57:08.411Z,86.01
2018-12-16T18:59:37.465Z,86.22
2018-12-16T19:02:06.614Z,85.88
2018-12-16T19:04:35.591Z,86.19
2018-12-16T19:07:05.210Z,85.54
2018-12-16T19:09:34.150Z,85.44
2018-12-16T19:12:03.145Z,85.85
2018-12-16T19:14:32.688Z,86.57
2018-12-16T19:17:01.720Z,86.53
2018-12-16T19:19:30.782Z,86.33
2018-12-16T19:21:59.760Z,85.69
2018-12-16T19:24:28.801Z,85.56
2018-12-16T19:26:58.434Z,85.89
2018-12-16T19:29:27.897Z,86.54
2018-12-16T19:31:57.021Z,85.87
2018-12-16T19:34:26.009Z,85.94
2018-12-16T19:36:55.162Z,86.16
2018-12-16T19:39:24.155Z,85.81
2018-12-16T19:41:53.175Z,86.27
2018-12-16T19:44:22.117Z,86.07
2018-12-16T19:46:51.155Z,85.78
2018-12-16T19:49:20.169Z,85.79
2018-12-16T19:51:49.173Z,86.13
2018-12-16T19:54:18.711Z,86.25
2018-12-16T19:56:47.719Z,86.40
2018-12-16T19:59:16.719Z,86.32
2018-12-16T20:01:45.839Z,86.17
2018-12-16T20:04:17.271Z,85.92
2018-12-16T20:06:47.791Z,86.17
2018-12-16T20:09:17.322Z,86.09
2018-12-16T20:11:46.297Z,86.61
2018-12-16T20:14:15.295Z,86.08
2018-12-16T20:16:44.322Z,86.37
2018-12-16T20:19:13.295Z,85.86
2018-12-16T20:21:42.259Z,86.17
2018-12-16T20:24:11.371Z,85.91
2018-12-16T20:26:40.401Z,87.59
2018-12-16T20:29:09.395Z,87.85
2018-12-16T20:31:38.428Z,87.28
2018-12-16T20:34:07.368Z,86.52
2018-12-16T20:36:36.437Z,86.37
2018-12-16T20:39:07.280Z,86.61
2018-12-16T20:41:36.255Z,86.50
2018-12-16T20:44:05.240Z,86.52
2018-12-16T20:46:34.563Z,87.52
2018-12-16T20:49:03.670Z,86.86
2018-12-16T20:54:14.003Z,87.00
2018-12-16T20:56:42.966Z,88.13
2018-12-16T20:59:11.992Z,87.49
2018-12-16T21:01:40.960Z,86.86
2018-12-16T21:04:09.923Z,87.88
2018-12-16T21:06:38.920Z,87.37
2018-12-16T21:09:08.324Z,87.30
2018-12-16T21:11:42.716Z,87.28
2018-12-16T21:15:20.645Z,88.18
2018-12-16T21:17:54.899Z,87.91
2018-12-16T21:20:25.238Z,88.12
2018-12-16T21:22:54.394Z,87.70
2018-12-16T21:25:23.372Z,88.50
2018-12-16T21:27:52.714Z,88.87
2018-12-16T21:30:21.720Z,88.82
2018-12-16T21:32:50.777Z,88.10
2018-12-16T21:35:20.147Z,88.34
2018-12-16T21:37:49.220Z,87.79
2018-12-16T21:40:18.174Z,87.75
2018-12-16T21:42:47.185Z,88.04
2018-12-16T21:45:16.146Z,88.26
2018-12-16T21:47:45.176Z,88.45
2018-12-16T21:50:14.160Z,87.75
2018-12-16T21:52:43.151Z,87.48
2018-12-16T21:55:12.094Z,87.94
2018-12-16T21:57:41.053Z,88.58
2018-12-16T22:00:11.272Z,88.66
2018-12-16T22:02:40.309Z,87.91
2018-12-16T22:05:10.209Z,87.73
2018-12-16T22:07:39.230Z,87.79
2018-12-16T22:10:08.328Z,87.90
2018-12-16T22:12:37.361Z,87.88
2018-12-16T22:15:06.434Z,87.63
2018-12-16T22:17:35.461Z,87.93
2018-12-16T22:20:04.927Z,87.05
2018-12-16T22:22:33.937Z,87.41
2018-12-16T22:25:02.926Z,87.95
2018-12-16T22:27:31.924Z,87.99
2018-12-16T22:30:00.872Z,87.98
2018-12-16T22:32:30.054Z,88.17
2018-12-16T22:34:59.142Z,88.33
2018-12-16T22:37:28.156Z,87.97
2018-12-16T22:39:57.087Z,87.90
2018-12-16T22:42:26.086Z,88.33
2018-12-16T22:44:55.121Z,88.35
2018-12-16T22:47:24.087Z,88.22
2018-12-16T22:49:53.076Z,88.50
2018-12-16T22:52:22.067Z,88.85
2018-12-16T22:54:51.083Z,89.18
2018-12-16T22:57:20.059Z,88.53
2018-12-16T22:59:49.025Z,88.80
2018-12-16T23:02:17.972Z,88.70
2018-12-16T23:04:46.962Z,88.00
2018-12-16T23:07:15.967Z,88.15
2018-12-16T23:09:44.883Z,88.47
2018-12-16T23:12:13.807Z,88.87
2018-12-16T23:14:42.861Z,88.67
2018-12-16T23:17:12.607Z,88.43
2018-12-16T23:19:41.544Z,88.06
2018-12-16T23:22:10.518Z,88.04
2018-12-16T23:24:39.839Z,88.61
2018-12-16T23:27:10.038Z,88.56
2018-12-16T23:29:40.319Z,88.52
2018-12-16T23:32:09.334Z,88.57
2018-12-16T23:34:38.286Z,88.88
2018-12-16T23:37:07.304Z,89.05
2018-12-16T23:39:36.279Z,88.75
2018-12-16T23:42:05.238Z,88.54
2018-12-16T23:44:34.295Z,88.92
2018-12-16T23:47:03.255Z,88.66
2018-12-16T23:49:32.189Z,88.56
2018-12-16T23:52:01.165Z,89.17
2018-12-16T23:54:30.211Z,88.90
2018-12-16T23:56:59.179Z,89.77
2018-12-16T23:59:28.139Z,89.01
